Bellocq, Argentina
Current Conditions -  °F | °C
As of 6:00 PM on Sunday 23 Nov 2014 (Local Time) from SAEZ Reporting Station
Clear Clear  
Wind Chill: 82°   Ceiling: Unl
Heat Index: 82°   Visibility: 6mi
Dew Point: 54°   Wind: 9mph
Humidity: 37%   Direction: 360°N
Pressure: 29.74"   Gusts: NA
Location:  35.8°S, 61.35°W
Report Text: SAEZ 232100Z 36008KT 320V050 CAVOK 28/12 Q1007
Loading
Personal Weather Stations






























Interactive Weather Map New forecast layout! Learn more

10-Day Weather Forecast

Advertisements
Track Severe Weather on mobile